createdAt,value
2023-03-17T00:01:54.037Z,45500.16
2023-03-17T00:04:22.528Z,45502.16
2023-03-17T00:06:48.969Z,45510.16
2023-03-17T00:09:17.769Z,45514.13
2023-03-17T00:11:45.725Z,45488.16
2023-03-17T00:14:12.161Z,45510.16
2023-03-17T00:16:44.614Z,45490.16
2023-03-17T00:19:17.062Z,45506.16
2023-03-17T00:21:45.870Z,45506.16
2023-03-17T00:24:14.844Z,45514.13
2023-03-17T00:26:42.377Z,45514.13
2023-03-17T00:29:08.968Z,45522.13
2023-03-17T00:31:36.250Z,45498.16
2023-03-17T00:34:02.752Z,45512.16
2023-03-17T00:36:32.313Z,45506.16
2023-03-17T00:38:59.499Z,45504.16
2023-03-17T00:41:27.321Z,45498.16
2023-03-17T00:43:54.098Z,45506.16
2023-03-17T00:46:35.742Z,45498.16
2023-03-17T00:49:10.633Z,45504.16
2023-03-17T00:51:39.954Z,45492.16
2023-03-17T00:54:06.800Z,45524.13
2023-03-17T00:56:33.319Z,45518.13
2023-03-17T00:59:00.049Z,45510.16
2023-03-17T01:01:26.693Z,45494.16
2023-03-17T01:03:53.380Z,45518.13
2023-03-17T01:06:20.088Z,45510.16
2023-03-17T01:08:47.382Z,45508.16
2023-03-17T01:11:19.087Z,45504.16
2023-03-17T01:13:47.538Z,45490.16
2023-03-17T01:16:15.358Z,45502.16
2023-03-17T01:18:41.980Z,45502.16
2023-03-17T01:21:08.425Z,45492.16
2023-03-17T01:23:35.411Z,45510.16
2023-03-17T01:26:02.139Z,45518.13
2023-03-17T01:28:28.775Z,45510.16
2023-03-17T01:30:55.441Z,45506.16
2023-03-17T01:33:22.165Z,45542.13
2023-03-17T01:35:50.540Z,45498.16
2023-03-17T01:38:17.496Z,45512.16
2023-03-17T01:40:47.924Z,45508.16
2023-03-17T01:43:27.631Z,45518.13
2023-03-17T01:46:17.913Z,45522.13
2023-03-17T01:48:47.322Z,45526.13
2023-03-17T01:51:21.958Z,45510.16
2023-03-17T01:53:49.777Z,45512.16
2023-03-17T01:56:17.967Z,45516.13
2023-03-17T01:58:48.178Z,45518.13
2023-03-17T02:01:15.467Z,45512.16
2023-03-17T02:03:42.892Z,45518.13
2023-03-17T02:06:10.036Z,45514.13
2023-03-17T02:08:36.485Z,45510.16
2023-03-17T02:11:05.332Z,45544.13
2023-03-17T02:13:33.344Z,45522.13
2023-03-17T02:16:00.003Z,45508.16
2023-03-17T02:18:27.029Z,45542.13
2023-03-17T02:20:53.370Z,45524.13
2023-03-17T02:23:24.739Z,45522.13
2023-03-17T02:25:53.504Z,45510.16
2023-03-17T02:28:25.849Z,45502.16
2023-03-17T02:30:52.330Z,45492.16
2023-03-17T02:33:19.026Z,45516.13
2023-03-17T02:35:46.136Z,45514.13
2023-03-17T02:38:15.936Z,45514.13
2023-03-17T02:40:42.358Z,45518.13
2023-03-17T02:43:08.899Z,45528.13
2023-03-17T02:45:36.724Z,45522.13
2023-03-17T02:48:03.929Z,45526.13
2023-03-17T02:50:31.681Z,45526.13
2023-03-17T02:52:58.424Z,45540.13
2023-03-17T02:55:24.803Z,45512.16
2023-03-17T02:57:51.440Z,45530.13
2023-03-17T03:00:19.548Z,45534.13
2023-03-17T03:02:46.022Z,45508.16
2023-03-17T03:05:12.605Z,45514.13
2023-03-17T03:07:38.985Z,45518.13
2023-03-17T03:10:06.089Z,45518.13
2023-03-17T03:12:32.759Z,45514.13
2023-03-17T03:14:59.602Z,45518.13
2023-03-17T03:17:26.225Z,45508.16
2023-03-17T03:19:52.623Z,45538.13
2023-03-17T03:22:19.364Z,45538.13
2023-03-17T03:24:46.772Z,45518.13
2023-03-17T03:27:13.380Z,45522.13
2023-03-17T03:29:39.886Z,45512.16
2023-03-17T03:32:07.228Z,45534.13
2023-03-17T03:34:33.741Z,45534.13
2023-03-17T03:37:00.177Z,45510.16
2023-03-17T03:39:26.620Z,45510.16
2023-03-17T03:41:57.211Z,45514.13
2023-03-17T03:44:24.616Z,45516.13
2023-03-17T03:46:51.737Z,45510.16
2023-03-17T03:49:18.290Z,45526.13
2023-03-17T03:51:44.663Z,45540.13
2023-03-17T03:54:11.173Z,45538.13
2023-03-17T03:56:37.530Z,45538.13
2023-03-17T03:59:04.208Z,45524.13
2023-03-17T04:01:30.756Z,45530.13
2023-03-17T04:03:57.132Z,45520.13
2023-03-17T04:06:23.645Z,45508.16
2023-03-17T04:08:50.062Z,45522.13
2023-03-17T04:11:16.692Z,45546.13
2023-03-17T04:13:43.194Z,45522.13
2023-03-17T04:16:10.002Z,45534.13
2023-03-17T04:18:36.762Z,45522.13
2023-03-17T04:21:03.228Z,45522.13
2023-03-17T04:23:31.382Z,45538.13
2023-03-17T04:25:58.330Z,45536.13
2023-03-17T04:28:24.872Z,45526.13
2023-03-17T04:30:51.558Z,45524.13
2023-03-17T04:33:20.098Z,45514.13
2023-03-17T04:35:46.675Z,45534.13
2023-03-17T04:38:13.433Z,45538.13
2023-03-17T04:40:39.835Z,45516.13
2023-03-17T04:43:06.502Z,45518.13
2023-03-17T04:45:33.188Z,45510.16
2023-03-17T04:48:00.144Z,45530.13
2023-03-17T04:50:26.560Z,45538.13
2023-03-17T04:52:53.032Z,45516.13
2023-03-17T04:55:19.560Z,45522.13
2023-03-17T04:57:46.399Z,45520.13
2023-03-17T05:00:15.308Z,45546.13
2023-03-17T05:02:41.889Z,45534.13
2023-03-17T05:05:08.536Z,45528.13
2023-03-17T05:07:35.428Z,45550.13
2023-03-17T05:10:02.110Z,45534.13
2023-03-17T05:12:28.593Z,45518.13
2023-03-17T05:14:55.370Z,45510.16
2023-03-17T05:17:22.114Z,45514.13
2023-03-17T05:19:48.529Z,45514.13
2023-03-17T05:22:14.908Z,45542.13
2023-03-17T05:24:41.297Z,45522.13
2023-03-17T05:27:07.824Z,45538.13
2023-03-17T05:29:34.421Z,45518.13
2023-03-17T05:32:00.845Z,45542.13
2023-03-17T05:34:27.371Z,45524.13
2023-03-17T05:36:54.250Z,45522.13
2023-03-17T05:39:20.654Z,45534.13
2023-03-17T05:41:47.146Z,45530.13
2023-03-17T05:44:13.623Z,45524.13
2023-03-17T05:46:40.490Z,45534.13
2023-03-17T05:49:07.504Z,45522.13
2023-03-17T05:51:35.747Z,45514.13
2023-03-17T05:54:03.480Z,45538.13
2023-03-17T05:56:33.473Z,45546.13
2023-03-17T05:59:01.577Z,45550.13
2023-03-17T06:01:29.257Z,45540.13
2023-03-17T06:03:55.779Z,45548.13
2023-03-17T06:06:24.425Z,45538.13
2023-03-17T06:08:50.781Z,45538.13
2023-03-17T06:11:20.042Z,45526.13
2023-03-17T06:13:46.844Z,45528.13
2023-03-17T06:16:13.954Z,45536.13
2023-03-17T06:18:40.459Z,45526.13
2023-03-17T06:21:07.187Z,45520.13
2023-03-17T06:23:33.600Z,45520.13
2023-03-17T06:26:00.022Z,45530.13
2023-03-17T06:28:26.536Z,45556.09
2023-03-17T06:30:53.025Z,45526.13
2023-03-17T06:33:19.915Z,45538.13
2023-03-17T06:35:46.716Z,45550.13
2023-03-17T06:38:14.455Z,45528.13
2023-03-17T06:40:41.328Z,45516.13
2023-03-17T06:43:07.750Z,45522.13
2023-03-17T06:45:34.505Z,45540.13
2023-03-17T06:48:02.177Z,45534.13
2023-03-17T06:50:28.865Z,45518.13
2023-03-17T06:52:55.383Z,45542.13
2023-03-17T06:55:22.051Z,45498.16
2023-03-17T06:57:50.954Z,45516.13
2023-03-17T07:00:18.743Z,45502.16
2023-03-17T07:02:45.792Z,45526.13
2023-03-17T07:05:13.837Z,45514.13
2023-03-17T07:07:40.861Z,45514.13
2023-03-17T07:10:10.235Z,45518.13
2023-03-17T07:12:37.483Z,45538.13
2023-03-17T07:15:04.203Z,45506.16
2023-03-17T07:17:30.683Z,45522.13
2023-03-17T07:19:57.072Z,45504.16
2023-03-17T07:22:23.442Z,45522.13
2023-03-17T07:24:49.820Z,45540.13
2023-03-17T07:27:16.538Z,45510.16
2023-03-17T07:29:42.997Z,45498.16
2023-03-17T07:32:10.325Z,45512.16
2023-03-17T07:34:37.270Z,45510.16
2023-03-17T07:37:04.284Z,45510.16
2023-03-17T07:39:31.186Z,45496.16
2023-03-17T07:41:58.155Z,45502.16
2023-03-17T07:44:25.742Z,45522.13
2023-03-17T07:46:52.113Z,45498.16
2023-03-17T07:49:34.049Z,45496.16
2023-03-17T07:52:05.659Z,45478.16
2023-03-17T07:54:32.306Z,45506.16
2023-03-17T07:56:59.117Z,45496.16
2023-03-17T07:59:25.529Z,45488.16
2023-03-17T08:01:53.111Z,45506.16
2023-03-17T08:04:19.697Z,45514.13
2023-03-17T08:06:46.878Z,45498.16
2023-03-17T08:09:13.342Z,45500.16
2023-03-17T08:11:39.778Z,45502.16
2023-03-17T08:14:06.667Z,45502.16
2023-03-17T08:16:33.231Z,45502.16
2023-03-17T08:19:00.102Z,45492.16
2023-03-17T08:21:27.283Z,45496.16
2023-03-17T08:23:54.355Z,45472.16
2023-03-17T08:26:21.821Z,45470.19
2023-03-17T08:28:50.150Z,45500.16
2023-03-17T08:31:20.818Z,45478.16
2023-03-17T08:33:50.420Z,45464.19
2023-03-17T08:36:18.799Z,45466.19
2023-03-17T08:38:46.582Z,45474.16
2023-03-17T08:41:16.599Z,45482.16
2023-03-17T08:43:44.332Z,45470.19
2023-03-17T08:46:18.762Z,45482.16
2023-03-17T08:48:46.710Z,45484.16
2023-03-17T08:51:13.589Z,45470.19
2023-03-17T08:53:40.566Z,45462.19
2023-03-17T08:56:08.326Z,45474.16
2023-03-17T08:58:37.625Z,45474.16
2023-03-17T09:01:05.776Z,45474.16
2023-03-17T09:03:33.479Z,45468.19
2023-03-17T09:06:00.004Z,45468.19
2023-03-17T09:08:27.721Z,45450.19
2023-03-17T09:10:54.218Z,45454.19
2023-03-17T09:13:21.999Z,45456.19
2023-03-17T09:15:51.732Z,45446.19
2023-03-17T09:18:21.460Z,45466.19
2023-03-17T09:20:48.535Z,45438.19
2023-03-17T09:23:15.826Z,45444.19
2023-03-17T09:25:42.813Z,45442.19
2023-03-17T09:28:12.304Z,45438.19
2023-03-17T09:30:45.059Z,45428.22
2023-03-17T09:33:13.356Z,45436.19
2023-03-17T09:35:40.376Z,45418.22
2023-03-17T09:38:07.981Z,45438.19
2023-03-17T09:40:47.867Z,45426.22
2023-03-17T09:43:39.152Z,45438.19
2023-03-17T09:46:48.368Z,45424.22
2023-03-17T09:49:25.227Z,45426.22
2023-03-17T09:51:52.394Z,45410.22
2023-03-17T09:54:25.854Z,45438.19
2023-03-17T09:56:57.454Z,45418.22
2023-03-17T09:59:30.272Z,45422.22
2023-03-17T10:01:57.578Z,45410.22
2023-03-17T10:04:24.270Z,45400.22
2023-03-17T10:06:52.291Z,45416.22
2023-03-17T10:09:40.056Z,45422.22
2023-03-17T10:12:12.958Z,45414.22
2023-03-17T10:15:03.416Z,45408.22
2023-03-17T10:17:34.230Z,45398.22
2023-03-17T10:20:17.444Z,45406.22
2023-03-17T10:22:50.222Z,45394.22
2023-03-17T10:25:22.822Z,45390.25
2023-03-17T10:27:56.848Z,45394.22
2023-03-17T10:30:23.819Z,45406.22
2023-03-17T10:32:52.395Z,45382.25
2023-03-17T10:35:20.112Z,45386.25
2023-03-17T10:37:47.430Z,45398.22
2023-03-17T10:40:22.633Z,45372.25
2023-03-17T10:42:54.051Z,45378.25
2023-03-17T10:45:27.739Z,45364.25
2023-03-17T10:47:57.393Z,45386.25
2023-03-17T10:50:33.132Z,45364.25
2023-03-17T10:53:03.014Z,45394.22
2023-03-17T10:55:38.737Z,45360.25
2023-03-17T10:58:22.513Z,45350.28
2023-03-17T11:00:56.929Z,45362.25
2023-03-17T11:03:27.857Z,45354.25
2023-03-17T11:06:03.850Z,45364.25
2023-03-17T11:08:36.873Z,45352.28
2023-03-17T11:11:07.199Z,45360.25
2023-03-17T11:13:33.887Z,45338.28
2023-03-17T11:16:23.343Z,45346.28
2023-03-17T11:18:57.401Z,45342.28
2023-03-17T11:21:27.640Z,45318.28
2023-03-17T11:23:59.482Z,45320.28
2023-03-17T11:26:38.665Z,45326.28
2023-03-17T11:29:24.374Z,45324.28
2023-03-17T11:31:59.546Z,45330.28
2023-03-17T11:34:52.013Z,45318.28
2023-03-17T11:37:50.046Z,45322.28
2023-03-17T11:40:45.477Z,45312.31
2023-03-17T11:43:36.810Z,45318.28
2023-03-17T11:46:11.671Z,45294.31
2023-03-17T11:48:51.584Z,45306.31
2023-03-17T11:51:33.744Z,45316.28
2023-03-17T11:54:10.853Z,45304.31
2023-03-17T11:56:44.561Z,45298.31
2023-03-17T11:59:34.416Z,45292.31
2023-03-17T12:02:20.732Z,45286.31
2023-03-17T12:04:58.241Z,45286.31
2023-03-17T12:07:37.425Z,45300.31
2023-03-17T12:10:13.824Z,45286.31
2023-03-17T12:12:48.172Z,45274.34
2023-03-17T12:15:22.492Z,45264.34
2023-03-17T12:17:56.591Z,45258.34
2023-03-17T12:20:44.864Z,45250.34
2023-03-17T12:23:49.635Z,45254.34
2023-03-17T12:26:23.858Z,45252.34
2023-03-17T12:29:02.039Z,45238.38
2023-03-17T12:31:33.398Z,45240.34
2023-03-17T12:34:09.315Z,45242.34
2023-03-17T12:36:40.405Z,45234.38
2023-03-17T12:39:12.459Z,45224.38
2023-03-17T12:42:07.233Z,45230.38
2023-03-17T12:44:57.467Z,45228.38
2023-03-17T12:47:39.124Z,45230.38
2023-03-17T12:50:32.345Z,45232.38
2023-03-17T12:53:26.581Z,45226.38
2023-03-17T12:55:56.957Z,45220.38
2023-03-17T12:58:37.062Z,45234.38
2023-03-17T13:01:15.833Z,45248.34
2023-03-17T13:04:21.857Z,45218.38
2023-03-17T13:06:59.654Z,45228.38
2023-03-17T13:10:09.717Z,45230.38
2023-03-17T13:13:21.791Z,45234.38
2023-03-17T13:15:52.668Z,45218.38
2023-03-17T13:18:19.029Z,45224.38
2023-03-17T13:21:10.299Z,45230.38
2023-03-17T13:24:20.354Z,45226.38
2023-03-17T13:27:01.681Z,45236.38
2023-03-17T13:29:33.907Z,45234.38
2023-03-17T13:32:15.556Z,45230.38
2023-03-17T13:34:48.862Z,45234.38
2023-03-17T13:37:27.350Z,45230.38
2023-03-17T13:40:11.104Z,45258.34
2023-03-17T13:42:53.976Z,45234.38
2023-03-17T13:45:34.017Z,45234.38
2023-03-17T13:48:22.241Z,45250.34
2023-03-17T13:50:57.202Z,45246.34
2023-03-17T13:53:28.563Z,45238.38
2023-03-17T13:56:11.839Z,45242.34
2023-03-17T13:59:00.208Z,45254.34
2023-03-17T14:01:30.485Z,45250.34
2023-03-17T14:03:57.066Z,45258.34
2023-03-17T14:06:30.040Z,45254.34
2023-03-17T14:09:11.063Z,45258.34
2023-03-17T14:11:43.795Z,45254.34
2023-03-17T14:14:38.354Z,45272.34
2023-03-17T14:17:28.843Z,45270.34
2023-03-17T14:20:13.698Z,45262.34
2023-03-17T14:22:45.972Z,45274.34
2023-03-17T14:25:21.163Z,45272.34
2023-03-17T14:27:56.892Z,45276.34
2023-03-17T14:30:27.097Z,45272.34
2023-03-17T14:33:37.824Z,45274.34
2023-03-17T14:36:08.631Z,45286.31
2023-03-17T14:38:37.545Z,45266.34
2023-03-17T14:41:07.321Z,45260.34
2023-03-17T14:43:35.930Z,45274.34
2023-03-17T14:46:07.877Z,45264.34
2023-03-17T14:48:37.401Z,45274.34
2023-03-17T14:51:15.829Z,45258.34
2023-03-17T14:53:46.099Z,45270.34
2023-03-17T14:56:13.623Z,45262.34
2023-03-17T14:58:44.712Z,45286.31
2023-03-17T15:01:19.972Z,45270.34
2023-03-17T15:04:06.997Z,45292.31
2023-03-17T15:06:36.859Z,45268.34
2023-03-17T15:09:16.772Z,45278.31
2023-03-17T15:11:44.366Z,45270.34
2023-03-17T15:14:32.880Z,45274.34
2023-03-17T15:17:03.138Z,45282.31
2023-03-17T15:19:40.873Z,45282.31
2023-03-17T15:22:25.988Z,45282.31
2023-03-17T15:25:00.224Z,45282.31
2023-03-17T15:27:27.884Z,45276.34
2023-03-17T15:29:54.526Z,45288.31
2023-03-17T15:32:27.553Z,45282.31
2023-03-17T15:34:56.973Z,45296.31
2023-03-17T15:37:24.534Z,45294.31
2023-03-17T15:39:53.579Z,45298.31
2023-03-17T15:42:26.512Z,45298.31
2023-03-17T15:44:53.788Z,45294.31
2023-03-17T15:47:22.690Z,45286.31
2023-03-17T15:49:50.845Z,45282.31
2023-03-17T15:52:24.793Z,45298.31
2023-03-17T15:54:53.179Z,45300.31
2023-03-17T15:57:19.907Z,45284.31
2023-03-17T15:59:46.374Z,45298.31
2023-03-17T16:02:32.112Z,45298.31
2023-03-17T16:05:01.342Z,45302.31
2023-03-17T16:07:28.686Z,45306.31
2023-03-17T16:09:55.153Z,45296.31
2023-03-17T16:12:21.788Z,45306.31
2023-03-17T16:14:48.361Z,45294.31
2023-03-17T16:17:28.735Z,45328.28
2023-03-17T16:19:56.196Z,45302.31
2023-03-17T16:22:36.073Z,45298.31
2023-03-17T16:25:03.791Z,45302.31
2023-03-17T16:27:30.218Z,45294.31
2023-03-17T16:29:56.583Z,45306.31
2023-03-17T16:32:23.175Z,45322.28
2023-03-17T16:34:49.715Z,45320.28
2023-03-17T16:37:16.655Z,45314.28
2023-03-17T16:39:43.163Z,45308.31
2023-03-17T16:42:22.277Z,45334.28
2023-03-17T16:44:48.890Z,45330.28
2023-03-17T16:47:15.667Z,45314.28
2023-03-17T16:49:42.331Z,45310.31
2023-03-17T16:52:09.028Z,45318.28
2023-03-17T16:54:35.682Z,45322.28
2023-03-17T16:57:02.132Z,45316.28
2023-03-17T16:59:31.283Z,45330.28
2023-03-17T17:01:58.326Z,45330.28
2023-03-17T17:04:25.056Z,45342.28
2023-03-17T17:06:51.565Z,45318.28
2023-03-17T17:09:18.942Z,45330.28
2023-03-17T17:11:45.494Z,45328.28
2023-03-17T17:14:11.908Z,45322.28
2023-03-17T17:16:39.907Z,45336.28
2023-03-17T17:19:15.589Z,45310.31
2023-03-17T17:21:42.422Z,45330.28
2023-03-17T17:24:13.192Z,45330.28
2023-03-17T17:26:39.781Z,45318.28
2023-03-17T17:29:06.375Z,45330.28
2023-03-17T17:31:33.218Z,45322.28
2023-03-17T17:33:59.732Z,45326.28
2023-03-17T17:36:26.844Z,45338.28
2023-03-17T17:38:53.233Z,45352.28
2023-03-17T17:41:21.518Z,45342.28
2023-03-17T17:43:48.149Z,45342.28
2023-03-17T17:46:20.324Z,45342.28
2023-03-17T17:48:47.243Z,45352.28
2023-03-17T17:51:14.391Z,45342.28
2023-03-17T17:53:41.015Z,45338.28
2023-03-17T17:56:08.203Z,45348.28
2023-03-17T17:58:34.642Z,45346.28
2023-03-17T18:01:01.618Z,45358.25
2023-03-17T18:03:28.659Z,45342.28
2023-03-17T18:05:57.409Z,45352.28
2023-03-17T18:08:25.312Z,45346.28
2023-03-17T18:10:52.413Z,45352.28
2023-03-17T18:13:18.969Z,45344.28
2023-03-17T18:15:45.343Z,45354.25
2023-03-17T18:18:12.022Z,45362.25
2023-03-17T18:20:38.480Z,45336.28
2023-03-17T18:23:04.883Z,45344.28
2023-03-17T18:25:31.320Z,45354.25
2023-03-17T18:28:00.463Z,45354.25
2023-03-17T18:30:31.021Z,45346.28
2023-03-17T18:33:04.544Z,45370.25
2023-03-17T18:35:31.450Z,45356.25
2023-03-17T18:37:58.344Z,45358.25
2023-03-17T18:40:25.964Z,45358.25
2023-03-17T18:42:52.638Z,45366.25
2023-03-17T18:45:19.394Z,45358.25
2023-03-17T18:47:45.842Z,45362.25
2023-03-17T18:50:14.477Z,45362.25
2023-03-17T18:52:42.323Z,45358.25
2023-03-17T18:55:11.014Z,45362.25
2023-03-17T18:57:37.770Z,45358.25
2023-03-17T19:00:05.853Z,45346.28
2023-03-17T19:02:33.163Z,45350.28
2023-03-17T19:04:59.649Z,45374.25
2023-03-17T19:07:26.525Z,45362.25
2023-03-17T19:09:52.932Z,45378.25
2023-03-17T19:12:19.593Z,45386.25
2023-03-17T19:14:46.220Z,45368.25
2023-03-17T19:17:12.887Z,45368.25
2023-03-17T19:19:41.187Z,45366.25
2023-03-17T19:22:08.136Z,45366.25
2023-03-17T19:24:36.991Z,45374.25
2023-03-17T19:27:04.565Z,45366.25
2023-03-17T19:29:31.014Z,45362.25
2023-03-17T19:31:58.472Z,45378.25
2023-03-17T19:34:24.949Z,45354.25
2023-03-17T19:36:51.683Z,45370.25
2023-03-17T19:39:18.167Z,45354.25
2023-03-17T19:41:44.765Z,45386.25
2023-03-17T19:44:11.195Z,45382.25
2023-03-17T19:46:37.931Z,45374.25
2023-03-17T19:49:04.787Z,45366.25
2023-03-17T19:51:31.849Z,45360.25
2023-03-17T19:53:58.352Z,45360.25
2023-03-17T19:56:25.006Z,45372.25
2023-03-17T19:58:51.454Z,45374.25
2023-03-17T20:01:18.368Z,45362.25
2023-03-17T20:03:44.863Z,45378.25
2023-03-17T20:06:15.022Z,45380.25
2023-03-17T20:08:42.659Z,45384.25
2023-03-17T20:11:10.166Z,45382.25
2023-03-17T20:13:37.197Z,45370.25
2023-03-17T20:16:05.668Z,45394.22
2023-03-17T20:18:32.232Z,45386.25
2023-03-17T20:21:00.093Z,45400.22
2023-03-17T20:23:26.977Z,45378.25
2023-03-17T20:25:53.509Z,45374.25
2023-03-17T20:28:21.391Z,45378.25
2023-03-17T20:30:49.240Z,45380.25
2023-03-17T20:33:16.745Z,45376.25
2023-03-17T20:35:46.721Z,45408.22
2023-03-17T20:38:14.533Z,45370.25
2023-03-17T20:40:41.695Z,45374.25
2023-03-17T20:43:09.272Z,45370.25
2023-03-17T20:45:35.807Z,45378.25
2023-03-17T20:48:05.882Z,45378.25
2023-03-17T20:50:34.287Z,45378.25
2023-03-17T20:53:01.492Z,45378.25
2023-03-17T20:55:28.213Z,45392.22
2023-03-17T20:57:58.551Z,45372.25
2023-03-17T21:00:26.087Z,45382.25
2023-03-17T21:02:53.103Z,45382.25
2023-03-17T21:05:25.218Z,45372.25
2023-03-17T21:07:51.862Z,45382.25
2023-03-17T21:10:19.107Z,45378.25
2023-03-17T21:12:46.298Z,45386.25
2023-03-17T21:15:13.823Z,45394.22
2023-03-17T21:17:41.900Z,45398.22
2023-03-17T21:20:10.843Z,45370.25
2023-03-17T21:22:37.543Z,45378.25
2023-03-17T21:25:04.988Z,45386.25
2023-03-17T21:27:31.369Z,45384.25
2023-03-17T21:29:57.834Z,45388.25
2023-03-17T21:32:24.593Z,45396.22
2023-03-17T21:34:51.535Z,45378.25
2023-03-17T21:37:18.654Z,45386.25
2023-03-17T21:39:45.735Z,45390.25
2023-03-17T21:42:12.244Z,45378.25
2023-03-17T21:44:39.167Z,45394.22
2023-03-17T21:47:05.706Z,45368.25
2023-03-17T21:49:32.199Z,45408.22
2023-03-17T21:51:58.773Z,45380.25
2023-03-17T21:54:25.505Z,45394.22
2023-03-17T21:56:52.552Z,45386.25
2023-03-17T21:59:20.861Z,45398.22
2023-03-17T22:01:51.756Z,45388.25
2023-03-17T22:04:18.331Z,45384.25
2023-03-17T22:06:44.744Z,45380.25
2023-03-17T22:09:11.142Z,45386.25
2023-03-17T22:11:37.697Z,45390.25
2023-03-17T22:14:04.149Z,45398.22
2023-03-17T22:16:30.899Z,45394.22
2023-03-17T22:18:57.354Z,45380.25
2023-03-17T22:21:24.921Z,45408.22
2023-03-17T22:23:51.779Z,45414.22
2023-03-17T22:26:20.499Z,45402.22
2023-03-17T22:28:49.021Z,45406.22
2023-03-17T22:31:18.652Z,45386.25
2023-03-17T22:33:46.569Z,45414.22
2023-03-17T22:36:13.121Z,45386.25
2023-03-17T22:38:40.217Z,45388.25
2023-03-17T22:41:12.942Z,45408.22
2023-03-17T22:43:40.225Z,45416.22
2023-03-17T22:46:07.389Z,45394.22
2023-03-17T22:48:36.075Z,45410.22
2023-03-17T22:51:08.968Z,45402.22
2023-03-17T22:53:36.593Z,45412.22
2023-03-17T22:56:04.086Z,45406.22
2023-03-17T22:58:31.090Z,45410.22
2023-03-17T23:00:57.950Z,45396.22
2023-03-17T23:03:26.174Z,45406.22
2023-03-17T23:05:57.071Z,45416.22
2023-03-17T23:08:24.420Z,45412.22
2023-03-17T23:10:51.313Z,45418.22
2023-03-17T23:13:19.458Z,45410.22
2023-03-17T23:15:46.702Z,45416.22
2023-03-17T23:18:13.106Z,45414.22
2023-03-17T23:20:40.626Z,45414.22
2023-03-17T23:23:08.302Z,45414.22
2023-03-17T23:25:35.525Z,45414.22
2023-03-17T23:28:02.847Z,45398.22
2023-03-17T23:30:29.812Z,45418.22
2023-03-17T23:32:56.569Z,45422.22
2023-03-17T23:35:23.570Z,45412.22
2023-03-17T23:37:50.009Z,45440.19
2023-03-17T23:40:17.221Z,45418.22
2023-03-17T23:42:45.860Z,45406.22
2023-03-17T23:45:12.334Z,45418.22
2023-03-17T23:47:38.926Z,45416.22
2023-03-17T23:50:05.953Z,45396.22
2023-03-17T23:52:32.597Z,45422.22
2023-03-17T23:54:59.663Z,45414.22
2023-03-17T23:57:26.281Z,45410.22
2023-03-17T23:59:52.829Z,45438.19
